Star City, Indiana
Current Conditions -  °F | °C
As of 10:55 AM on Saturday 25 Oct 2014 (Local Time) from KGGP Reporting Station
Clear Clear  
Wind Chill: 63°   Ceiling: Unl
Heat Index: 63°   Visibility: 7mi
Dew Point: 54°   Wind: 12mph
Humidity: 72%   Direction: 260°W
Pressure: 29.95"   Gusts: NA
Location:  40.97°N, 86.56°W
Report Text: KGGP 251555Z AUTO 26010KT 7SM CLR 17/12 A2995 RMK AO2
Loading
Personal Weather Stations






























Interactive Weather Map
Tropical Storm Tracking
New forecast layout! Learn more

10-Day Weather Forecast

Advertisements
Track Severe Weather on mobile